sensor_id;sensor_type;location;lat;lon;timestamp;temperature;humidity
76263;DHT22;65080;50.908;6.916;2023-01-15T00:01:23;8.90;74.40
76263;DHT22;65080;50.908;6.916;2023-01-15T00:03:53;8.90;74.30
76263;DHT22;65080;50.908;6.916;2023-01-15T00:06:23;8.80;74.20
76263;DHT22;65080;50.908;6.916;2023-01-15T00:08:52;8.80;74.20
76263;DHT22;65080;50.908;6.916;2023-01-15T00:11:24;8.80;74.00
76263;DHT22;65080;50.908;6.916;2023-01-15T00:13:55;8.70;73.70
76263;DHT22;65080;50.908;6.916;2023-01-15T00:16:25;8.60;73.70
76263;DHT22;65080;50.908;6.916;2023-01-15T00:18:55;8.60;73.80
76263;DHT22;65080;50.908;6.916;2023-01-15T00:21:24;8.50;74.00
76263;DHT22;65080;50.908;6.916;2023-01-15T00:23:54;8.50;74.40
76263;DHT22;65080;50.908;6.916;2023-01-15T00:26:40;8.40;74.60
76263;DHT22;65080;50.908;6.916;2023-01-15T00:29:27;8.30;74.80
76263;DHT22;65080;50.908;6.916;2023-01-15T00:31:57;8.30;74.70
76263;DHT22;65080;50.908;6.916;2023-01-15T00:34:26;8.20;74.70
76263;DHT22;65080;50.908;6.916;2023-01-15T00:36:55;8.20;75.00
76263;DHT22;65080;50.908;6.916;2023-01-15T00:39:24;8.10;75.10
76263;DHT22;65080;50.908;6.916;2023-01-15T00:41:53;8.10;75.40
76263;DHT22;65080;50.908;6.916;2023-01-15T00:44:21;8.10;75.90
76263;DHT22;65080;50.908;6.916;2023-01-15T00:46:51;8.10;76.10
76263;DHT22;65080;50.908;6.916;2023-01-15T00:49:20;8.10;76.20
76263;DHT22;65080;50.908;6.916;2023-01-15T00:51:48;8.10;76.30
76263;DHT22;65080;50.908;6.916;2023-01-15T00:54:17;8.20;76.50
76263;DHT22;65080;50.908;6.916;2023-01-15T00:56:45;8.10;76.30
76263;DHT22;65080;50.908;6.916;2023-01-15T00:59:14;8.10;76.20
76263;DHT22;65080;50.908;6.916;2023-01-15T01:01:42;8.10;76.10
76263;DHT22;65080;50.908;6.916;2023-01-15T01:04:12;8.00;76.00
76263;DHT22;65080;50.908;6.916;2023-01-15T01:06:40;8.00;76.10
76263;DHT22;65080;50.908;6.916;2023-01-15T01:09:10;8.00;76.10
76263;DHT22;65080;50.908;6.916;2023-01-15T01:11:40;8.00;76.20
76263;DHT22;65080;50.908;6.916;2023-01-15T01:14:09;8.10;76.10
76263;DHT22;65080;50.908;6.916;2023-01-15T01:16:38;8.10;75.80
76263;DHT22;65080;50.908;6.916;2023-01-15T01:19:11;8.10;75.80
76263;DHT22;65080;50.908;6.916;2023-01-15T01:21:42;8.10;76.00
76263;DHT22;65080;50.908;6.916;2023-01-15T01:24:12;8.10;76.00
76263;DHT22;65080;50.908;6.916;2023-01-15T01:26:41;8.10;75.60
76263;DHT22;65080;50.908;6.916;2023-01-15T01:29:11;8.10;75.40
76263;DHT22;65080;50.908;6.916;2023-01-15T01:31:39;8.10;75.10
76263;DHT22;65080;50.908;6.916;2023-01-15T01:34:08;8.00;75.10
76263;DHT22;65080;50.908;6.916;2023-01-15T01:36:38;8.00;74.80
76263;DHT22;65080;50.908;6.916;2023-01-15T01:39:12;8.00;74.60
76263;DHT22;65080;50.908;6.916;2023-01-15T01:41:41;8.00;74.60
76263;DHT22;65080;50.908;6.916;2023-01-15T01:47:13;8.10;74.40
76263;DHT22;65080;50.908;6.916;2023-01-15T01:49:43;8.10;74.40
76263;DHT22;65080;50.908;6.916;2023-01-15T01:52:14;8.10;73.90
76263;DHT22;65080;50.908;6.916;2023-01-15T01:54:46;8.10;73.70
76263;DHT22;65080;50.908;6.916;2023-01-15T01:57:17;8.20;73.40
76263;DHT22;65080;50.908;6.916;2023-01-15T01:59:47;8.20;72.90
76263;DHT22;65080;50.908;6.916;2023-01-15T02:02:19;8.30;72.50
76263;DHT22;65080;50.908;6.916;2023-01-15T02:04:49;8.30;72.10
76263;DHT22;65080;50.908;6.916;2023-01-15T02:07:17;8.30;71.70
76263;DHT22;65080;50.908;6.916;2023-01-15T02:09:47;8.30;71.10
76263;DHT22;65080;50.908;6.916;2023-01-15T02:12:21;8.30;70.60
76263;DHT22;65080;50.908;6.916;2023-01-15T02:14:56;8.30;70.20
76263;DHT22;65080;50.908;6.916;2023-01-15T02:17:32;8.30;69.80
76263;DHT22;65080;50.908;6.916;2023-01-15T02:20:20;8.30;69.50
76263;DHT22;65080;50.908;6.916;2023-01-15T02:22:59;8.20;69.20
76263;DHT22;65080;50.908;6.916;2023-01-15T02:25:34;8.30;69.20
76263;DHT22;65080;50.908;6.916;2023-01-15T02:28:17;8.30;69.10
76263;DHT22;65080;50.908;6.916;2023-01-15T02:30:54;8.30;69.00
76263;DHT22;65080;50.908;6.916;2023-01-15T02:33:29;8.30;69.00
76263;DHT22;65080;50.908;6.916;2023-01-15T02:35:59;8.30;68.90
76263;DHT22;65080;50.908;6.916;2023-01-15T02:38:29;8.30;68.70
76263;DHT22;65080;50.908;6.916;2023-01-15T02:41:00;8.20;68.50
76263;DHT22;65080;50.908;6.916;2023-01-15T02:43:34;8.20;68.20
76263;DHT22;65080;50.908;6.916;2023-01-15T02:46:04;8.10;68.10
76263;DHT22;65080;50.908;6.916;2023-01-15T02:48:35;8.10;68.10
76263;DHT22;65080;50.908;6.916;2023-01-15T02:51:08;8.10;68.00
76263;DHT22;65080;50.908;6.916;2023-01-15T02:53:39;8.10;68.00
76263;DHT22;65080;50.908;6.916;2023-01-15T02:56:12;8.10;67.90
76263;DHT22;65080;50.908;6.916;2023-01-15T02:58:43;8.10;68.00
76263;DHT22;65080;50.908;6.916;2023-01-15T03:01:28;8.10;67.80
76263;DHT22;65080;50.908;6.916;2023-01-15T03:04:09;8.20;67.70
76263;DHT22;65080;50.908;6.916;2023-01-15T03:06:43;8.10;67.70
76263;DHT22;65080;50.908;6.916;2023-01-15T03:09:14;8.20;67.70
76263;DHT22;65080;50.908;6.916;2023-01-15T03:11:46;8.20;67.60
76263;DHT22;65080;50.908;6.916;2023-01-15T03:14:20;8.20;67.70
76263;DHT22;65080;50.908;6.916;2023-01-15T03:16:53;8.20;67.60
76263;DHT22;65080;50.908;6.916;2023-01-15T03:19:26;8.20;67.60
76263;DHT22;65080;50.908;6.916;2023-01-15T03:21:56;8.30;67.60
76263;DHT22;65080;50.908;6.916;2023-01-15T03:24:29;8.30;67.30
76263;DHT22;65080;50.908;6.916;2023-01-15T03:26:59;8.30;67.20
76263;DHT22;65080;50.908;6.916;2023-01-15T03:29:31;8.30;67.20
76263;DHT22;65080;50.908;6.916;2023-01-15T03:32:00;8.40;66.50
76263;DHT22;65080;50.908;6.916;2023-01-15T03:34:34;8.40;66.30
76263;DHT22;65080;50.908;6.916;2023-01-15T03:37:03;8.40;66.00
76263;DHT22;65080;50.908;6.916;2023-01-15T03:39:32;8.40;65.70
76263;DHT22;65080;50.908;6.916;2023-01-15T03:42:09;8.50;65.60
76263;DHT22;65080;50.908;6.916;2023-01-15T03:44:48;8.50;65.00
76263;DHT22;65080;50.908;6.916;2023-01-15T03:47:29;8.60;65.00
76263;DHT22;65080;50.908;6.916;2023-01-15T03:50:04;8.60;64.80
76263;DHT22;65080;50.908;6.916;2023-01-15T03:52:43;8.60;64.50
76263;DHT22;65080;50.908;6.916;2023-01-15T03:55:14;8.60;64.20
76263;DHT22;65080;50.908;6.916;2023-01-15T03:57:49;8.60;63.90
76263;DHT22;65080;50.908;6.916;2023-01-15T04:00:25;8.60;63.80
76263;DHT22;65080;50.908;6.916;2023-01-15T04:02:55;8.60;63.90
76263;DHT22;65080;50.908;6.916;2023-01-15T04:05:25;8.60;63.80
76263;DHT22;65080;50.908;6.916;2023-01-15T04:07:56;8.60;63.40
76263;DHT22;65080;50.908;6.916;2023-01-15T04:10:25;8.50;63.10
76263;DHT22;65080;50.908;6.916;2023-01-15T04:12:53;8.50;63.10
76263;DHT22;65080;50.908;6.916;2023-01-15T04:15:23;8.50;63.10
76263;DHT22;65080;50.908;6.916;2023-01-15T04:17:51;8.50;63.00
76263;DHT22;65080;50.908;6.916;2023-01-15T04:20:19;8.50;62.90
76263;DHT22;65080;50.908;6.916;2023-01-15T04:22:48;8.50;62.80
76263;DHT22;65080;50.908;6.916;2023-01-15T04:25:16;8.50;62.70
76263;DHT22;65080;50.908;6.916;2023-01-15T04:27:44;8.50;62.70
76263;DHT22;65080;50.908;6.916;2023-01-15T04:30:13;8.50;62.80
76263;DHT22;65080;50.908;6.916;2023-01-15T04:32:47;8.50;63.30
76263;DHT22;65080;50.908;6.916;2023-01-15T04:35:15;8.50;62.60
76263;DHT22;65080;50.908;6.916;2023-01-15T04:37:44;8.50;62.60
76263;DHT22;65080;50.908;6.916;2023-01-15T04:40:13;8.50;63.40
76263;DHT22;65080;50.908;6.916;2023-01-15T04:43:02;8.50;62.70
76263;DHT22;65080;50.908;6.916;2023-01-15T04:45:48;8.50;62.90
76263;DHT22;65080;50.908;6.916;2023-01-15T04:48:17;8.50;63.00
76263;DHT22;65080;50.908;6.916;2023-01-15T04:50:45;8.50;63.10
76263;DHT22;65080;50.908;6.916;2023-01-15T04:53:14;8.50;63.10
76263;DHT22;65080;50.908;6.916;2023-01-15T04:55:42;8.50;63.10
76263;DHT22;65080;50.908;6.916;2023-01-15T04:58:11;8.50;63.10
76263;DHT22;65080;50.908;6.916;2023-01-15T05:00:39;8.40;62.90
76263;DHT22;65080;50.908;6.916;2023-01-15T05:03:08;8.40;63.00
76263;DHT22;65080;50.908;6.916;2023-01-15T05:05:37;8.50;63.10
76263;DHT22;65080;50.908;6.916;2023-01-15T05:08:05;8.50;63.00
76263;DHT22;65080;50.908;6.916;2023-01-15T05:10:34;8.50;62.90
76263;DHT22;65080;50.908;6.916;2023-01-15T05:13:02;8.50;62.90
76263;DHT22;65080;50.908;6.916;2023-01-15T05:15:30;8.50;62.70
76263;DHT22;65080;50.908;6.916;2023-01-15T05:17:58;8.50;62.70
76263;DHT22;65080;50.908;6.916;2023-01-15T05:20:27;8.50;62.50
76263;DHT22;65080;50.908;6.916;2023-01-15T05:22:56;8.40;62.20
76263;DHT22;65080;50.908;6.916;2023-01-15T05:25:24;8.40;62.10
76263;DHT22;65080;50.908;6.916;2023-01-15T05:27:53;8.40;62.00
76263;DHT22;65080;50.908;6.916;2023-01-15T05:30:21;8.40;61.90
76263;DHT22;65080;50.908;6.916;2023-01-15T05:32:49;8.40;61.90
76263;DHT22;65080;50.908;6.916;2023-01-15T05:35:17;8.40;61.70
76263;DHT22;65080;50.908;6.916;2023-01-15T05:37:46;8.40;61.60
76263;DHT22;65080;50.908;6.916;2023-01-15T05:40:16;8.50;61.50
76263;DHT22;65080;50.908;6.916;2023-01-15T05:42:44;8.50;61.30
76263;DHT22;65080;50.908;6.916;2023-01-15T05:45:12;8.40;61.00
76263;DHT22;65080;50.908;6.916;2023-01-15T05:47:40;8.50;60.90
76263;DHT22;65080;50.908;6.916;2023-01-15T05:50:10;8.50;60.70
76263;DHT22;65080;50.908;6.916;2023-01-15T05:52:38;8.50;60.50
76263;DHT22;65080;50.908;6.916;2023-01-15T05:55:08;8.50;60.20
76263;DHT22;65080;50.908;6.916;2023-01-15T05:57:38;8.50;60.20
76263;DHT22;65080;50.908;6.916;2023-01-15T06:00:07;8.50;60.10
76263;DHT22;65080;50.908;6.916;2023-01-15T06:02:36;8.50;60.10
76263;DHT22;65080;50.908;6.916;2023-01-15T06:05:05;8.40;60.10
76263;DHT22;65080;50.908;6.916;2023-01-15T06:07:33;8.40;60.20
76263;DHT22;65080;50.908;6.916;2023-01-15T06:10:01;8.40;60.30
76263;DHT22;65080;50.908;6.916;2023-01-15T06:12:31;8.40;60.60
76263;DHT22;65080;50.908;6.916;2023-01-15T06:15:01;8.40;60.70
76263;DHT22;65080;50.908;6.916;2023-01-15T06:17:29;8.40;60.90
76263;DHT22;65080;50.908;6.916;2023-01-15T06:19:57;8.40;61.10
76263;DHT22;65080;50.908;6.916;2023-01-15T06:22:26;8.40;61.20
76263;DHT22;65080;50.908;6.916;2023-01-15T06:24:55;8.30;61.40
76263;DHT22;65080;50.908;6.916;2023-01-15T06:27:23;8.30;61.40
76263;DHT22;65080;50.908;6.916;2023-01-15T06:29:52;8.30;61.60
76263;DHT22;65080;50.908;6.916;2023-01-15T06:32:21;8.30;61.70
76263;DHT22;65080;50.908;6.916;2023-01-15T06:34:50;8.30;61.80
76263;DHT22;65080;50.908;6.916;2023-01-15T06:37:18;8.20;61.80
76263;DHT22;65080;50.908;6.916;2023-01-15T06:39:46;8.20;61.90
76263;DHT22;65080;50.908;6.916;2023-01-15T06:42:14;8.20;62.00
76263;DHT22;65080;50.908;6.916;2023-01-15T06:45:00;8.10;61.80
76263;DHT22;65080;50.908;6.916;2023-01-15T06:47:47;8.10;61.80
76263;DHT22;65080;50.908;6.916;2023-01-15T06:50:16;8.10;61.90
76263;DHT22;65080;50.908;6.916;2023-01-15T06:52:44;8.10;62.00
76263;DHT22;65080;50.908;6.916;2023-01-15T06:55:12;8.00;62.00
76263;DHT22;65080;50.908;6.916;2023-01-15T06:57:40;8.10;62.20
76263;DHT22;65080;50.908;6.916;2023-01-15T07:00:10;8.00;62.30
76263;DHT22;65080;50.908;6.916;2023-01-15T07:02:39;8.00;62.40
76263;DHT22;65080;50.908;6.916;2023-01-15T07:05:09;8.00;62.60
76263;DHT22;65080;50.908;6.916;2023-01-15T07:07:38;7.90;62.80
76263;DHT22;65080;50.908;6.916;2023-01-15T07:10:07;7.90;63.00
76263;DHT22;65080;50.908;6.916;2023-01-15T07:12:35;7.90;63.20
76263;DHT22;65080;50.908;6.916;2023-01-15T07:15:04;7.90;63.40
76263;DHT22;65080;50.908;6.916;2023-01-15T07:17:32;7.80;63.50
76263;DHT22;65080;50.908;6.916;2023-01-15T07:20:01;7.80;63.60
76263;DHT22;65080;50.908;6.916;2023-01-15T07:22:31;7.80;63.60
76263;DHT22;65080;50.908;6.916;2023-01-15T07:24:59;7.70;63.80
76263;DHT22;65080;50.908;6.916;2023-01-15T07:27:27;7.70;63.90
76263;DHT22;65080;50.908;6.916;2023-01-15T07:29:56;7.70;64.00
76263;DHT22;65080;50.908;6.916;2023-01-15T07:32:24;7.60;64.00
76263;DHT22;65080;50.908;6.916;2023-01-15T07:34:52;7.60;64.10
76263;DHT22;65080;50.908;6.916;2023-01-15T07:37:20;7.50;64.10
76263;DHT22;65080;50.908;6.916;2023-01-15T07:39:50;7.60;64.50
76263;DHT22;65080;50.908;6.916;2023-01-15T07:42:18;7.60;64.50
76263;DHT22;65080;50.908;6.916;2023-01-15T07:45:05;7.60;64.30
76263;DHT22;65080;50.908;6.916;2023-01-15T07:47:53;7.60;64.40
76263;DHT22;65080;50.908;6.916;2023-01-15T07:50:38;7.60;64.40
76263;DHT22;65080;50.908;6.916;2023-01-15T07:53:07;7.60;64.40
76263;DHT22;65080;50.908;6.916;2023-01-15T07:55:37;7.60;64.60
76263;DHT22;65080;50.908;6.916;2023-01-15T07:58:05;7.60;64.40
76263;DHT22;65080;50.908;6.916;2023-01-15T08:00:33;7.70;64.50
76263;DHT22;65080;50.908;6.916;2023-01-15T08:03:02;7.70;64.40
76263;DHT22;65080;50.908;6.916;2023-01-15T08:05:30;7.70;64.50
76263;DHT22;65080;50.908;6.916;2023-01-15T08:07:58;7.70;64.60
76263;DHT22;65080;50.908;6.916;2023-01-15T08:10:27;7.70;64.40
76263;DHT22;65080;50.908;6.916;2023-01-15T08:12:57;7.60;64.40
76263;DHT22;65080;50.908;6.916;2023-01-15T08:15:42;7.50;64.60
76263;DHT22;65080;50.908;6.916;2023-01-15T08:18:11;7.20;64.90
76263;DHT22;65080;50.908;6.916;2023-01-15T08:20:39;7.00;66.00
76263;DHT22;65080;50.908;6.916;2023-01-15T08:23:07;6.80;66.60
76263;DHT22;65080;50.908;6.916;2023-01-15T08:25:36;6.70;67.20
76263;DHT22;65080;50.908;6.916;2023-01-15T08:28:06;6.60;67.60
76263;DHT22;65080;50.908;6.916;2023-01-15T08:30:34;6.60;68.20
76263;DHT22;65080;50.908;6.916;2023-01-15T08:33:02;6.50;68.70
76263;DHT22;65080;50.908;6.916;2023-01-15T08:35:31;6.40;69.30
76263;DHT22;65080;50.908;6.916;2023-01-15T08:38:03;6.40;69.90
76263;DHT22;65080;50.908;6.916;2023-01-15T08:40:32;6.30;70.10
76263;DHT22;65080;50.908;6.916;2023-01-15T08:43:02;6.20;70.30
76263;DHT22;65080;50.908;6.916;2023-01-15T08:45:31;6.20;70.90
76263;DHT22;65080;50.908;6.916;2023-01-15T08:48:00;6.20;71.10
76263;DHT22;65080;50.908;6.916;2023-01-15T08:50:28;6.10;71.20
76263;DHT22;65080;50.908;6.916;2023-01-15T08:52:56;6.10;71.70
76263;DHT22;65080;50.908;6.916;2023-01-15T08:55:24;6.10;72.30
76263;DHT22;65080;50.908;6.916;2023-01-15T08:57:53;6.10;73.20
76263;DHT22;65080;50.908;6.916;2023-01-15T09:00:21;6.20;72.70
76263;DHT22;65080;50.908;6.916;2023-01-15T09:02:52;6.20;73.00
76263;DHT22;65080;50.908;6.916;2023-01-15T09:05:20;6.20;73.30
76263;DHT22;65080;50.908;6.916;2023-01-15T09:07:48;6.20;73.60
76263;DHT22;65080;50.908;6.916;2023-01-15T09:10:17;6.20;73.70
76263;DHT22;65080;50.908;6.916;2023-01-15T09:12:45;6.30;73.90
76263;DHT22;65080;50.908;6.916;2023-01-15T09:15:14;6.30;74.20
76263;DHT22;65080;50.908;6.916;2023-01-15T09:17:42;6.30;74.50
76263;DHT22;65080;50.908;6.916;2023-01-15T09:20:13;6.40;74.90
76263;DHT22;65080;50.908;6.916;2023-01-15T09:22:41;6.40;75.00
76263;DHT22;65080;50.908;6.916;2023-01-15T09:25:10;6.50;75.10
76263;DHT22;65080;50.908;6.916;2023-01-15T09:27:38;6.50;75.00
76263;DHT22;65080;50.908;6.916;2023-01-15T09:30:07;6.60;75.00
76263;DHT22;65080;50.908;6.916;2023-01-15T09:32:37;6.60;74.90
76263;DHT22;65080;50.908;6.916;2023-01-15T09:35:06;6.70;74.80
76263;DHT22;65080;50.908;6.916;2023-01-15T09:37:36;6.70;74.60
76263;DHT22;65080;50.908;6.916;2023-01-15T09:40:06;6.80;74.50
76263;DHT22;65080;50.908;6.916;2023-01-15T09:42:44;6.80;74.40
76263;DHT22;65080;50.908;6.916;2023-01-15T09:45:21;6.90;74.20
76263;DHT22;65080;50.908;6.916;2023-01-15T09:48:10;6.90;74.00
76263;DHT22;65080;50.908;6.916;2023-01-15T09:50:51;7.00;73.70
76263;DHT22;65080;50.908;6.916;2023-01-15T09:53:37;7.00;73.60
76263;DHT22;65080;50.908;6.916;2023-01-15T09:56:18;7.10;73.40
76263;DHT22;65080;50.908;6.916;2023-01-15T09:58:47;7.20;73.30
76263;DHT22;65080;50.908;6.916;2023-01-15T10:01:17;7.30;73.00
76263;DHT22;65080;50.908;6.916;2023-01-15T10:03:50;7.30;72.80
76263;DHT22;65080;50.908;6.916;2023-01-15T10:06:23;7.40;72.60
76263;DHT22;65080;50.908;6.916;2023-01-15T10:09:00;7.50;72.30
76263;DHT22;65080;50.908;6.916;2023-01-15T10:11:40;7.50;71.60
76263;DHT22;65080;50.908;6.916;2023-01-15T10:14:34;7.60;71.30
76263;DHT22;65080;50.908;6.916;2023-01-15T10:17:17;7.70;70.90
76263;DHT22;65080;50.908;6.916;2023-01-15T10:19:46;7.70;70.10
76263;DHT22;65080;50.908;6.916;2023-01-15T10:22:25;7.80;69.80
76263;DHT22;65080;50.908;6.916;2023-01-15T10:24:57;7.90;69.10
76263;DHT22;65080;50.908;6.916;2023-01-15T10:27:27;7.90;68.50
76263;DHT22;65080;50.908;6.916;2023-01-15T10:30:05;8.00;67.80
76263;DHT22;65080;50.908;6.916;2023-01-15T10:32:42;8.00;67.10
76263;DHT22;65080;50.908;6.916;2023-01-15T10:35:38;8.10;66.70
76263;DHT22;65080;50.908;6.916;2023-01-15T10:38:15;8.20;66.40
76263;DHT22;65080;50.908;6.916;2023-01-15T10:41:07;8.20;65.90
76263;DHT22;65080;50.908;6.916;2023-01-15T10:43:46;8.20;65.00
76263;DHT22;65080;50.908;6.916;2023-01-15T10:46:17;8.30;65.00
76263;DHT22;65080;50.908;6.916;2023-01-15T10:48:49;8.30;64.60
76263;DHT22;65080;50.908;6.916;2023-01-15T10:51:21;8.40;64.10
76263;DHT22;65080;50.908;6.916;2023-01-15T10:53:52;8.40;63.50
76263;DHT22;65080;50.908;6.916;2023-01-15T10:56:30;8.40;63.00
76263;DHT22;65080;50.908;6.916;2023-01-15T10:59:08;8.40;62.40
76263;DHT22;65080;50.908;6.916;2023-01-15T11:01:39;8.50;62.40
76263;DHT22;65080;50.908;6.916;2023-01-15T11:04:09;8.50;62.10
76263;DHT22;65080;50.908;6.916;2023-01-15T11:06:39;8.60;61.90
76263;DHT22;65080;50.908;6.916;2023-01-15T11:09:17;8.60;61.30
76263;DHT22;65080;50.908;6.916;2023-01-15T11:11:51;8.60;60.80
76263;DHT22;65080;50.908;6.916;2023-01-15T11:14:40;8.60;60.70
76263;DHT22;65080;50.908;6.916;2023-01-15T11:17:31;8.70;60.60
76263;DHT22;65080;50.908;6.916;2023-01-15T11:20:26;8.80;60.40
76263;DHT22;65080;50.908;6.916;2023-01-15T11:22:55;8.80;60.10
76263;DHT22;65080;50.908;6.916;2023-01-15T11:25:28;8.80;59.80
76263;DHT22;65080;50.908;6.916;2023-01-15T11:27:59;8.90;59.60
76263;DHT22;65080;50.908;6.916;2023-01-15T11:30:31;8.90;59.30
76263;DHT22;65080;50.908;6.916;2023-01-15T11:33:01;8.90;59.10
76263;DHT22;65080;50.908;6.916;2023-01-15T11:35:32;9.00;59.10
76263;DHT22;65080;50.908;6.916;2023-01-15T11:38:02;9.00;58.80
76263;DHT22;65080;50.908;6.916;2023-01-15T11:40:30;9.00;58.60
76263;DHT22;65080;50.908;6.916;2023-01-15T11:43:00;8.90;58.50
76263;DHT22;65080;50.908;6.916;2023-01-15T11:45:48;9.00;58.50
76263;DHT22;65080;50.908;6.916;2023-01-15T11:48:42;9.00;58.20
76263;DHT22;65080;50.908;6.916;2023-01-15T11:51:30;9.00;58.10
76263;DHT22;65080;50.908;6.916;2023-01-15T11:54:03;9.10;58.10
76263;DHT22;65080;50.908;6.916;2023-01-15T11:56:40;9.10;57.70
76263;DHT22;65080;50.908;6.916;2023-01-15T11:59:12;9.10;57.60
76263;DHT22;65080;50.908;6.916;2023-01-15T12:01:50;9.10;57.50
76263;DHT22;65080;50.908;6.916;2023-01-15T12:04:30;9.00;57.40
76263;DHT22;65080;50.908;6.916;2023-01-15T12:07:00;9.00;57.20
76263;DHT22;65080;50.908;6.916;2023-01-15T12:09:39;8.90;57.10
76263;DHT22;65080;50.908;6.916;2023-01-15T12:12:18;8.90;57.20
76263;DHT22;65080;50.908;6.916;2023-01-15T12:15:10;8.90;57.20
76263;DHT22;65080;50.908;6.916;2023-01-15T12:18:10;8.80;57.10
76263;DHT22;65080;50.908;6.916;2023-01-15T12:20:53;8.80;57.00
76263;DHT22;65080;50.908;6.916;2023-01-15T12:26:34;8.80;57.20
76263;DHT22;65080;50.908;6.916;2023-01-15T12:29:10;8.80;57.30
76263;DHT22;65080;50.908;6.916;2023-01-15T12:31:44;8.80;57.20
76263;DHT22;65080;50.908;6.916;2023-01-15T12:34:18;8.80;57.10
76263;DHT22;65080;50.908;6.916;2023-01-15T12:36:50;8.80;57.10
76263;DHT22;65080;50.908;6.916;2023-01-15T12:39:23;8.80;57.00
76263;DHT22;65080;50.908;6.916;2023-01-15T12:41:59;8.80;56.90
76263;DHT22;65080;50.908;6.916;2023-01-15T12:44:50;8.90;56.90
76263;DHT22;65080;50.908;6.916;2023-01-15T12:47:38;8.90;56.80
76263;DHT22;65080;50.908;6.916;2023-01-15T12:50:23;8.90;56.80
76263;DHT22;65080;50.908;6.916;2023-01-15T12:53:02;8.90;56.80
76263;DHT22;65080;50.908;6.916;2023-01-15T12:55:37;8.90;56.80
76263;DHT22;65080;50.908;6.916;2023-01-15T12:58:25;8.90;56.80
76263;DHT22;65080;50.908;6.916;2023-01-15T13:01:03;8.90;56.70
76263;DHT22;65080;50.908;6.916;2023-01-15T13:03:45;9.00;56.70
76263;DHT22;65080;50.908;6.916;2023-01-15T13:06:17;9.00;56.50
76263;DHT22;65080;50.908;6.916;2023-01-15T13:08:53;9.00;56.40
76263;DHT22;65080;50.908;6.916;2023-01-15T13:11:23;9.00;56.20
76263;DHT22;65080;50.908;6.916;2023-01-15T13:13:51;9.10;56.20
76263;DHT22;65080;50.908;6.916;2023-01-15T13:16:38;9.10;56.10
76263;DHT22;65080;50.908;6.916;2023-01-15T13:19:27;9.20;56.20
76263;DHT22;65080;50.908;6.916;2023-01-15T13:22:02;9.20;56.00
76263;DHT22;65080;50.908;6.916;2023-01-15T13:24:56;9.20;56.00
76263;DHT22;65080;50.908;6.916;2023-01-15T13:27:44;9.10;55.80
76263;DHT22;65080;50.908;6.916;2023-01-15T13:30:31;9.10;55.90
76263;DHT22;65080;50.908;6.916;2023-01-15T13:33:16;9.30;56.10
76263;DHT22;65080;50.908;6.916;2023-01-15T13:35:49;9.20;55.90
76263;DHT22;65080;50.908;6.916;2023-01-15T13:38:21;9.20;55.80
76263;DHT22;65080;50.908;6.916;2023-01-15T13:40:53;9.20;55.80
76263;DHT22;65080;50.908;6.916;2023-01-15T13:43:27;9.20;55.50
76263;DHT22;65080;50.908;6.916;2023-01-15T13:45:57;9.20;55.40
76263;DHT22;65080;50.908;6.916;2023-01-15T13:48:30;9.20;55.40
76263;DHT22;65080;50.908;6.916;2023-01-15T13:51:03;9.20;55.10
76263;DHT22;65080;50.908;6.916;2023-01-15T13:53:35;9.20;54.90
76263;DHT22;65080;50.908;6.916;2023-01-15T13:56:07;9.20;55.00
76263;DHT22;65080;50.908;6.916;2023-01-15T13:58:38;9.30;55.10
76263;DHT22;65080;50.908;6.916;2023-01-15T14:01:22;9.30;54.90
76263;DHT22;65080;50.908;6.916;2023-01-15T14:04:01;9.40;54.70
76263;DHT22;65080;50.908;6.916;2023-01-15T14:06:42;9.40;54.80
76263;DHT22;65080;50.908;6.916;2023-01-15T14:09:12;9.40;54.60
76263;DHT22;65080;50.908;6.916;2023-01-15T14:11:55;9.40;54.60
76263;DHT22;65080;50.908;6.916;2023-01-15T14:14:43;9.40;54.40
76263;DHT22;65080;50.908;6.916;2023-01-15T14:20:31;9.30;54.10
76263;DHT22;65080;50.908;6.916;2023-01-15T14:23:21;9.30;54.30
76263;DHT22;65080;50.908;6.916;2023-01-15T14:25:59;9.30;54.30
76263;DHT22;65080;50.908;6.916;2023-01-15T14:28:41;9.30;54.30
76263;DHT22;65080;50.908;6.916;2023-01-15T14:31:39;9.30;54.20
76263;DHT22;65080;50.908;6.916;2023-01-15T14:34:17;9.20;54.00
76263;DHT22;65080;50.908;6.916;2023-01-15T14:36:51;9.20;54.10
76263;DHT22;65080;50.908;6.916;2023-01-15T14:39:35;9.20;54.10
76263;DHT22;65080;50.908;6.916;2023-01-15T14:42:09;9.20;54.10
76263;DHT22;65080;50.908;6.916;2023-01-15T14:44:58;9.20;54.20
76263;DHT22;65080;50.908;6.916;2023-01-15T14:47:31;9.20;54.30
76263;DHT22;65080;50.908;6.916;2023-01-15T14:50:26;9.20;54.30
76263;DHT22;65080;50.908;6.916;2023-01-15T14:53:03;9.20;54.20
76263;DHT22;65080;50.908;6.916;2023-01-15T14:55:46;9.10;54.10
76263;DHT22;65080;50.908;6.916;2023-01-15T14:58:26;9.10;54.10
76263;DHT22;65080;50.908;6.916;2023-01-15T15:00:58;9.10;54.20
76263;DHT22;65080;50.908;6.916;2023-01-15T15:03:32;9.10;54.20
76263;DHT22;65080;50.908;6.916;2023-01-15T15:06:02;9.10;54.10
76263;DHT22;65080;50.908;6.916;2023-01-15T15:08:32;9.10;54.10
76263;DHT22;65080;50.908;6.916;2023-01-15T15:11:04;9.10;54.10
76263;DHT22;65080;50.908;6.916;2023-01-15T15:13:55;9.10;54.20
76263;DHT22;65080;50.908;6.916;2023-01-15T15:16:26;9.10;54.30
76263;DHT22;65080;50.908;6.916;2023-01-15T15:18:59;9.10;54.30
76263;DHT22;65080;50.908;6.916;2023-01-15T15:21:32;9.10;54.30
76263;DHT22;65080;50.908;6.916;2023-01-15T15:24:06;9.10;54.30
76263;DHT22;65080;50.908;6.916;2023-01-15T15:26:40;9.00;54.20
76263;DHT22;65080;50.908;6.916;2023-01-15T15:29:11;9.00;54.30
76263;DHT22;65080;50.908;6.916;2023-01-15T15:31:43;9.00;54.30
76263;DHT22;65080;50.908;6.916;2023-01-15T15:34:16;9.00;54.40
76263;DHT22;65080;50.908;6.916;2023-01-15T15:36:47;9.00;54.50
76263;DHT22;65080;50.908;6.916;2023-01-15T15:39:19;8.90;54.70
76263;DHT22;65080;50.908;6.916;2023-01-15T15:41:51;8.90;54.90
76263;DHT22;65080;50.908;6.916;2023-01-15T15:44:42;8.90;55.00
76263;DHT22;65080;50.908;6.916;2023-01-15T15:47:36;8.90;55.20
76263;DHT22;65080;50.908;6.916;2023-01-15T15:50:23;8.80;55.20
76263;DHT22;65080;50.908;6.916;2023-01-15T15:52:52;8.80;55.40
76263;DHT22;65080;50.908;6.916;2023-01-15T15:55:22;8.80;55.70
76263;DHT22;65080;50.908;6.916;2023-01-15T15:57:55;8.90;55.70
76263;DHT22;65080;50.908;6.916;2023-01-15T16:00:29;8.90;55.40
76263;DHT22;65080;50.908;6.916;2023-01-15T16:03:01;8.90;55.40
76263;DHT22;65080;50.908;6.916;2023-01-15T16:05:31;8.90;55.30
76263;DHT22;65080;50.908;6.916;2023-01-15T16:08:17;8.90;55.30
76263;DHT22;65080;50.908;6.916;2023-01-15T16:10:49;8.80;55.10
76263;DHT22;65080;50.908;6.916;2023-01-15T16:13:23;8.90;55.30
76263;DHT22;65080;50.908;6.916;2023-01-15T16:15:54;8.90;55.20
76263;DHT22;65080;50.908;6.916;2023-01-15T16:18:25;8.90;55.30
76263;DHT22;65080;50.908;6.916;2023-01-15T16:20:55;8.90;55.30
76263;DHT22;65080;50.908;6.916;2023-01-15T16:23:25;8.90;55.30
76263;DHT22;65080;50.908;6.916;2023-01-15T16:25:57;8.90;55.30
76263;DHT22;65080;50.908;6.916;2023-01-15T16:28:34;8.90;55.30
76263;DHT22;65080;50.908;6.916;2023-01-15T16:31:03;9.00;55.20
76263;DHT22;65080;50.908;6.916;2023-01-15T16:33:32;9.10;55.30